createdAt,value
2019-01-30T00:00:30.538Z,3.60
2019-01-30T00:03:08.948Z,3.90
2019-01-30T00:05:44.277Z,4.00
2019-01-30T00:08:11.187Z,4.30
2019-01-30T00:10:38.609Z,4.20
2019-01-30T00:13:06.765Z,4.20
2019-01-30T00:15:37.754Z,4.20
2019-01-30T00:18:05.932Z,4.30
2019-01-30T00:20:36.708Z,4.00
2019-01-30T00:23:06.464Z,4.30
2019-01-30T00:25:41.152Z,4.40
2019-01-30T00:28:08.714Z,4.50
2019-01-30T00:30:36.125Z,4.10
2019-01-30T00:33:05.423Z,4.10
2019-01-30T00:35:32.341Z,4.20
2019-01-30T00:38:05.327Z,4.30
2019-01-30T00:40:35.811Z,4.00
2019-01-30T00:43:02.409Z,4.10
2019-01-30T00:45:31.367Z,3.80
2019-01-30T00:48:07.003Z,3.80
2019-01-30T00:50:41.822Z,4.10
2019-01-30T00:53:09.109Z,4.40
2019-01-30T00:55:40.227Z,4.40
2019-01-30T00:58:08.026Z,4.50
2019-01-30T01:00:34.695Z,4.50
2019-01-30T01:03:01.337Z,4.50
2019-01-30T01:05:28.042Z,4.60
2019-01-30T01:07:54.990Z,4.60
2019-01-30T01:10:21.598Z,4.60
2019-01-30T01:12:52.831Z,4.30
2019-01-30T01:15:22.751Z,4.20
2019-01-30T01:17:52.918Z,4.30
2019-01-30T01:20:28.407Z,4.50
2019-01-30T01:22:51.357Z,4.50
2019-01-30T01:25:19.313Z,4.40
2019-01-30T01:27:52.181Z,4.50
2019-01-30T01:30:25.375Z,4.50
2019-01-30T01:32:48.899Z,4.60
2019-01-30T01:35:16.818Z,4.50
2019-01-30T01:37:44.902Z,4.40
2019-01-30T01:40:14.419Z,4.50
2019-01-30T01:42:41.280Z,4.30
2019-01-30T01:45:11.091Z,4.20
2019-01-30T01:47:41.792Z,4.00
2019-01-30T01:50:09.040Z,4.00
2019-01-30T01:52:36.673Z,3.90
2019-01-30T01:55:07.437Z,3.80
2019-01-30T01:57:35.088Z,3.70
2019-01-30T02:00:03.947Z,3.80
2019-01-30T02:02:30.747Z,3.90
2019-01-30T02:04:57.938Z,3.90
2019-01-30T02:07:25.455Z,3.90
2019-01-30T02:09:52.081Z,3.80
2019-01-30T02:12:18.717Z,3.70
2019-01-30T02:14:46.644Z,3.60
2019-01-30T02:17:14.745Z,3.70
2019-01-30T02:19:41.448Z,3.40
2019-01-30T02:22:08.436Z,2.80
2019-01-30T02:24:35.099Z,2.50
2019-01-30T02:27:01.832Z,2.90
2019-01-30T02:29:28.999Z,3.50
2019-01-30T02:31:55.794Z,3.90
2019-01-30T02:34:23.058Z,4.10
2019-01-30T02:36:50.095Z,4.20
2019-01-30T02:41:48.952Z,4.00
2019-01-30T02:44:15.936Z,3.90
2019-01-30T02:46:42.595Z,4.00
2019-01-30T02:49:11.774Z,4.20
2019-01-30T02:51:42.607Z,4.20
2019-01-30T02:54:12.382Z,4.00
2019-01-30T02:59:27.964Z,3.80
2019-01-30T03:01:54.590Z,3.50
2019-01-30T03:04:21.558Z,3.80
2019-01-30T03:06:48.576Z,3.80
2019-01-30T03:09:15.920Z,3.60
2019-01-30T03:11:42.726Z,3.60
2019-01-30T03:14:10.158Z,3.70
2019-01-30T03:16:36.944Z,3.70
2019-01-30T03:19:03.720Z,3.80
2019-01-30T03:21:30.361Z,3.80
2019-01-30T03:23:57.010Z,3.90
2019-01-30T03:26:23.923Z,3.80
2019-01-30T03:28:50.835Z,3.80
2019-01-30T03:31:19.372Z,3.90
2019-01-30T03:33:46.384Z,3.90
2019-01-30T03:36:12.968Z,3.80
2019-01-30T03:38:39.941Z,3.60
2019-01-30T03:41:06.879Z,3.50
2019-01-30T03:43:33.607Z,3.70
2019-01-30T03:46:00.281Z,3.60
2019-01-30T03:48:27.124Z,3.60
2019-01-30T03:50:54.395Z,3.60
2019-01-30T03:53:21.139Z,3.60
2019-01-30T03:55:48.454Z,3.60
2019-01-30T03:58:16.609Z,3.70
2019-01-30T04:00:43.427Z,3.70
2019-01-30T04:03:10.401Z,3.20
2019-01-30T04:05:37.265Z,3.10
2019-01-30T04:08:03.910Z,2.60
2019-01-30T04:10:30.627Z,2.60
2019-01-30T04:12:57.708Z,2.90
2019-01-30T04:15:24.397Z,3.20
2019-01-30T04:17:51.158Z,3.40
2019-01-30T04:20:17.867Z,3.50
2019-01-30T04:22:44.566Z,3.50
2019-01-30T04:25:11.578Z,3.50
2019-01-30T04:27:38.698Z,3.70
2019-01-30T04:30:05.690Z,3.50
2019-01-30T04:35:17.217Z,3.80
2019-01-30T04:37:43.865Z,3.70
2019-01-30T04:40:15.507Z,3.80
2019-01-30T04:42:42.228Z,3.80
2019-01-30T04:45:09.485Z,3.60
2019-01-30T04:47:38.669Z,3.40
2019-01-30T04:50:07.385Z,3.60
2019-01-30T04:52:36.391Z,3.90
2019-01-30T04:55:03.145Z,4.00
2019-01-30T04:57:33.590Z,3.80
2019-01-30T05:00:00.352Z,3.80
2019-01-30T05:02:27.708Z,4.00
2019-01-30T05:04:54.402Z,3.80
2019-01-30T05:07:21.180Z,3.50
2019-01-30T05:09:48.068Z,3.40
2019-01-30T05:12:14.787Z,3.20
2019-01-30T05:14:41.419Z,3.30
2019-01-30T05:17:08.288Z,3.60
2019-01-30T05:19:34.945Z,3.70
2019-01-30T05:22:01.618Z,3.50
2019-01-30T05:24:28.256Z,3.60
2019-01-30T05:26:54.892Z,3.80
2019-01-30T05:29:21.746Z,3.90
2019-01-30T05:31:48.669Z,3.90
2019-01-30T05:34:15.381Z,4.00
2019-01-30T05:36:41.975Z,3.60
2019-01-30T05:39:08.818Z,3.50
2019-01-30T05:41:35.778Z,3.60
2019-01-30T05:44:02.601Z,3.70
2019-01-30T05:46:29.289Z,3.80
2019-01-30T05:48:56.239Z,3.70
2019-01-30T05:51:23.024Z,3.30
2019-01-30T05:53:50.376Z,3.10
2019-01-30T05:56:20.218Z,2.90
2019-01-30T05:58:49.696Z,3.20
2019-01-30T06:01:17.569Z,3.10
2019-01-30T06:03:44.219Z,3.30
2019-01-30T06:06:11.035Z,3.50
2019-01-30T06:08:37.643Z,3.50
2019-01-30T06:11:04.588Z,3.60
2019-01-30T06:13:31.366Z,3.50
2019-01-30T06:15:58.518Z,3.50
2019-01-30T06:18:25.249Z,3.50
2019-01-30T06:20:52.465Z,3.20
2019-01-30T06:23:19.326Z,3.30
2019-01-30T06:25:46.300Z,3.30
2019-01-30T06:28:12.944Z,3.30
2019-01-30T06:30:39.680Z,3.40
2019-01-30T06:33:06.531Z,3.50
2019-01-30T06:35:33.569Z,3.60
2019-01-30T06:38:00.796Z,3.40
2019-01-30T06:40:27.886Z,3.40
2019-01-30T06:42:54.785Z,3.10
2019-01-30T06:45:21.841Z,3.30
2019-01-30T06:47:49.146Z,3.10
2019-01-30T06:50:15.794Z,2.90
2019-01-30T06:52:43.282Z,2.90
2019-01-30T06:55:12.772Z,3.30
2019-01-30T06:57:40.399Z,3.50
2019-01-30T07:00:07.167Z,3.60
2019-01-30T07:02:34.178Z,3.70
2019-01-30T07:05:01.400Z,3.60
2019-01-30T07:07:28.212Z,3.30
2019-01-30T07:09:55.192Z,3.10
2019-01-30T07:12:22.228Z,3.20
2019-01-30T07:14:49.931Z,2.90
2019-01-30T07:17:16.565Z,3.10
2019-01-30T07:19:43.297Z,3.00
2019-01-30T07:22:10.201Z,3.00
2019-01-30T07:24:36.801Z,3.00
2019-01-30T07:27:03.404Z,3.20
2019-01-30T07:29:30.057Z,3.10
2019-01-30T07:31:56.824Z,3.10
2019-01-30T07:34:23.452Z,3.10
2019-01-30T07:36:50.157Z,3.20
2019-01-30T07:39:16.853Z,3.10
2019-01-30T07:41:43.584Z,3.30
2019-01-30T07:44:10.504Z,3.60
2019-01-30T07:46:37.212Z,3.10
2019-01-30T07:49:03.871Z,3.00
2019-01-30T07:51:30.669Z,3.50
2019-01-30T07:53:57.646Z,3.80
2019-01-30T07:56:24.313Z,3.80
2019-01-30T07:58:51.191Z,3.90
2019-01-30T08:01:17.860Z,3.70
2019-01-30T08:03:44.880Z,3.30
2019-01-30T08:06:11.780Z,3.60
2019-01-30T08:08:38.468Z,3.50
2019-01-30T08:11:07.313Z,3.20
2019-01-30T08:13:33.719Z,3.30
2019-01-30T08:16:00.519Z,3.60
2019-01-30T08:18:27.502Z,3.60
2019-01-30T08:20:54.176Z,3.70
2019-01-30T08:23:21.427Z,3.40
2019-01-30T08:25:48.252Z,3.90
2019-01-30T08:28:15.934Z,4.20
2019-01-30T08:30:43.323Z,4.20
2019-01-30T08:33:10.218Z,3.40
2019-01-30T08:35:38.650Z,3.40
2019-01-30T08:41:16.606Z,3.00
2019-01-30T08:44:17.686Z,3.60
2019-01-30T08:46:05.316Z,3.30
2019-01-30T08:48:41.638Z,4.00
2019-01-30T08:54:21.141Z,3.80
2019-01-30T08:56:39.076Z,4.20
2019-01-30T09:05:03.011Z,4.50
2019-01-30T09:07:44.339Z,4.80
2019-01-30T09:18:48.040Z,3.90
2019-01-30T09:21:43.663Z,3.80
2019-01-30T09:26:40.520Z,4.50
2019-01-30T09:29:33.667Z,4.60
2019-01-30T09:32:13.903Z,4.80
2019-01-30T09:34:53.135Z,4.50
2019-01-30T09:38:46.307Z,4.30
2019-01-30T09:45:55.071Z,4.70
2019-01-30T09:48:33.866Z,4.60
2019-01-30T09:50:59.755Z,4.40
2019-01-30T09:53:30.249Z,4.70
2019-01-30T09:55:57.207Z,4.80
2019-01-30T09:58:27.008Z,4.40
2019-01-30T10:00:53.684Z,4.80
2019-01-30T10:03:21.576Z,5.20
2019-01-30T10:05:48.250Z,5.10
2019-01-30T10:08:14.923Z,5.10
2019-01-30T10:10:41.531Z,4.00
2019-01-30T10:13:08.443Z,4.00
2019-01-30T10:15:35.630Z,3.50
2019-01-30T10:18:02.381Z,3.70
2019-01-30T10:20:29.058Z,4.20
2019-01-30T10:22:55.772Z,4.70
2019-01-30T10:25:24.920Z,4.40
2019-01-30T10:27:51.928Z,3.90
2019-01-30T10:30:20.726Z,4.00
2019-01-30T10:32:47.717Z,3.80
2019-01-30T10:35:15.734Z,3.90
2019-01-30T10:37:42.654Z,4.50
2019-01-30T10:40:09.307Z,5.10
2019-01-30T10:42:35.955Z,4.90
2019-01-30T10:45:02.851Z,4.90
2019-01-30T10:47:30.080Z,4.60
2019-01-30T10:49:56.845Z,4.30
2019-01-30T10:52:24.086Z,4.50
2019-01-30T10:54:52.249Z,4.90
2019-01-30T10:57:19.043Z,5.00
2019-01-30T10:59:46.031Z,4.50
2019-01-30T11:02:13.052Z,4.60
2019-01-30T11:04:40.098Z,4.50
2019-01-30T11:07:07.061Z,4.00
2019-01-30T11:09:34.302Z,4.20
2019-01-30T11:12:01.141Z,4.70
2019-01-30T11:14:28.200Z,5.10
2019-01-30T11:16:55.182Z,5.30
2019-01-30T11:19:22.690Z,4.90
2019-01-30T11:21:49.370Z,5.50
2019-01-30T11:24:16.270Z,5.30
2019-01-30T11:26:43.001Z,4.80
2019-01-30T11:29:10.088Z,4.90
2019-01-30T11:31:36.788Z,5.40
2019-01-30T11:34:07.682Z,5.90
2019-01-30T11:36:32.093Z,6.00
2019-01-30T11:38:58.742Z,5.60
2019-01-30T11:41:25.960Z,5.90
2019-01-30T11:43:53.157Z,5.10
2019-01-30T11:46:19.816Z,6.20
2019-01-30T11:48:56.012Z,5.40
2019-01-30T11:51:15.378Z,5.60
2019-01-30T11:53:42.071Z,5.60
2019-01-30T11:56:08.857Z,5.20
2019-01-30T11:58:35.852Z,5.30
2019-01-30T12:01:03.553Z,5.20
2019-01-30T12:03:30.335Z,5.50
2019-01-30T12:05:57.183Z,5.20
2019-01-30T12:08:24.038Z,5.20
2019-01-30T12:10:51.081Z,5.20
2019-01-30T12:13:18.110Z,5.30
2019-01-30T12:15:45.028Z,5.10
2019-01-30T12:18:11.663Z,4.70
2019-01-30T12:20:38.398Z,5.20
2019-01-30T12:23:05.162Z,4.90
2019-01-30T12:25:32.144Z,4.80
2019-01-30T12:27:59.112Z,5.20
2019-01-30T12:30:25.833Z,4.90
2019-01-30T12:32:53.971Z,5.00
2019-01-30T12:35:21.013Z,4.50
2019-01-30T12:40:16.911Z,4.70
2019-01-30T12:42:43.577Z,5.70
2019-01-30T12:45:10.265Z,5.60
2019-01-30T12:47:37.758Z,5.80
2019-01-30T12:50:04.536Z,5.50
2019-01-30T12:52:31.739Z,5.00
2019-01-30T12:54:58.449Z,5.20
2019-01-30T12:57:25.788Z,5.20
2019-01-30T12:59:54.002Z,4.90
2019-01-30T13:02:20.732Z,4.80
2019-01-30T13:04:47.628Z,4.70
2019-01-30T13:07:14.509Z,4.50
2019-01-30T13:09:41.210Z,5.20
2019-01-30T13:12:08.071Z,5.40
2019-01-30T13:14:34.982Z,5.70
2019-01-30T13:17:02.173Z,5.60
2019-01-30T13:19:28.921Z,4.70
2019-01-30T13:21:55.922Z,4.70
2019-01-30T13:24:24.378Z,4.70
2019-01-30T13:26:51.008Z,4.70
2019-01-30T13:29:17.943Z,5.10
2019-01-30T13:31:44.708Z,5.00
2019-01-30T13:34:11.422Z,4.90
2019-01-30T13:36:40.120Z,5.70
2019-01-30T13:39:06.624Z,6.50
2019-01-30T13:41:33.343Z,6.60
2019-01-30T13:44:00.519Z,6.00
2019-01-30T13:46:27.416Z,6.10
2019-01-30T13:48:54.850Z,5.90
2019-01-30T13:51:21.503Z,6.00
2019-01-30T13:53:48.561Z,5.90
2019-01-30T13:56:15.420Z,5.70
2019-01-30T13:58:42.967Z,6.20
2019-01-30T14:01:17.177Z,5.40
2019-01-30T14:03:38.568Z,5.50
2019-01-30T14:06:05.671Z,5.80
2019-01-30T14:08:32.616Z,5.60
2019-01-30T14:10:59.550Z,5.80
2019-01-30T14:13:26.496Z,6.40
2019-01-30T14:15:54.558Z,5.90
2019-01-30T14:18:21.283Z,4.90
2019-01-30T14:20:47.917Z,5.50
2019-01-30T14:23:14.952Z,5.40
2019-01-30T14:25:41.856Z,5.00
2019-01-30T14:28:08.797Z,4.80
2019-01-30T14:30:35.509Z,5.10
2019-01-30T14:33:02.549Z,4.90
2019-01-30T14:35:29.208Z,5.40
2019-01-30T14:37:56.555Z,5.80
2019-01-30T14:40:23.265Z,6.00
2019-01-30T14:42:50.154Z,6.00
2019-01-30T14:45:17.264Z,5.90
2019-01-30T14:47:43.884Z,6.10
2019-01-30T14:50:10.624Z,6.30
2019-01-30T14:52:37.369Z,6.40
2019-01-30T14:55:04.314Z,6.20
2019-01-30T14:57:30.972Z,5.90
2019-01-30T14:59:57.765Z,5.70
2019-01-30T15:02:26.333Z,5.60
2019-01-30T15:04:53.372Z,5.80
2019-01-30T15:07:28.880Z,5.60
2019-01-30T15:09:48.548Z,5.00
2019-01-30T15:12:15.478Z,5.20
2019-01-30T15:14:42.272Z,4.90
2019-01-30T15:17:08.978Z,5.20
2019-01-30T15:19:35.747Z,5.30
2019-01-30T15:22:02.941Z,5.30
2019-01-30T15:24:29.736Z,5.30
2019-01-30T15:26:56.828Z,5.50
2019-01-30T15:29:24.060Z,5.50
2019-01-30T15:31:50.795Z,5.20
2019-01-30T15:34:17.626Z,4.90
2019-01-30T15:36:44.478Z,5.20
2019-01-30T15:39:11.332Z,4.70
2019-01-30T15:41:38.418Z,4.60
2019-01-30T15:44:05.457Z,4.50
2019-01-30T15:46:32.228Z,4.70
2019-01-30T15:48:59.225Z,4.10
2019-01-30T15:51:26.446Z,4.30
2019-01-30T15:53:53.038Z,4.40
2019-01-30T15:56:20.247Z,4.70
2019-01-30T15:58:47.153Z,4.60
2019-01-30T16:01:14.069Z,4.50
2019-01-30T16:03:40.776Z,4.30
2019-01-30T16:06:07.430Z,4.20
2019-01-30T16:08:34.293Z,4.50
2019-01-30T16:11:01.047Z,4.40
2019-01-30T16:13:27.994Z,4.20
2019-01-30T16:15:54.773Z,4.50
2019-01-30T16:18:21.595Z,4.70
2019-01-30T16:20:48.723Z,4.40
2019-01-30T16:23:16.360Z,4.30
2019-01-30T16:25:43.084Z,4.40
2019-01-30T16:28:09.856Z,4.40
2019-01-30T16:30:36.830Z,4.50
2019-01-30T16:33:03.792Z,4.60
2019-01-30T16:35:30.721Z,4.40
2019-01-30T16:37:58.947Z,3.90
2019-01-30T16:40:30.881Z,4.00
2019-01-30T16:42:57.912Z,4.20
2019-01-30T16:45:30.303Z,4.40
2019-01-30T16:48:02.203Z,4.60
2019-01-30T16:50:29.294Z,4.50
2019-01-30T16:52:57.851Z,4.40
2019-01-30T16:55:25.488Z,4.40
2019-01-30T16:58:07.360Z,4.30
2019-01-30T17:00:23.202Z,4.60
2019-01-30T17:02:50.143Z,4.70
2019-01-30T17:05:16.840Z,4.80
2019-01-30T17:07:47.063Z,4.90
2019-01-30T17:10:13.689Z,4.80
2019-01-30T17:12:40.519Z,4.60
2019-01-30T17:15:08.154Z,4.60
2019-01-30T17:17:35.761Z,4.70
2019-01-30T17:20:02.640Z,4.70
2019-01-30T17:22:29.525Z,4.80
2019-01-30T17:24:57.930Z,4.90
2019-01-30T17:27:24.659Z,5.10
2019-01-30T17:29:52.409Z,4.80
2019-01-30T17:32:19.056Z,4.20
2019-01-30T17:34:46.139Z,4.20
2019-01-30T17:37:12.815Z,4.40
2019-01-30T17:39:39.443Z,4.70
2019-01-30T17:42:06.365Z,4.60
2019-01-30T17:44:33.049Z,4.70
2019-01-30T17:47:00.115Z,4.70
2019-01-30T17:49:28.367Z,4.20
2019-01-30T17:51:55.057Z,4.20
2019-01-30T17:54:22.046Z,4.50
2019-01-30T17:56:48.773Z,4.60
2019-01-30T17:59:15.448Z,4.80
2019-01-30T18:01:42.494Z,4.90
2019-01-30T18:04:09.313Z,4.80
2019-01-30T18:06:36.194Z,4.30
2019-01-30T18:09:02.850Z,4.60
2019-01-30T18:11:31.564Z,4.70
2019-01-30T18:13:59.784Z,4.90
2019-01-30T18:16:26.931Z,4.80
2019-01-30T18:18:55.915Z,4.80
2019-01-30T18:21:22.536Z,4.80
2019-01-30T18:23:49.636Z,4.70
2019-01-30T18:26:16.539Z,4.40
2019-01-30T18:28:43.262Z,3.90
2019-01-30T18:31:09.983Z,4.20
2019-01-30T18:33:36.665Z,4.00
2019-01-30T18:36:04.637Z,4.30
2019-01-30T18:38:31.256Z,4.50
2019-01-30T18:41:06.201Z,4.40
2019-01-30T18:43:32.871Z,4.10
2019-01-30T18:46:02.091Z,3.70
2019-01-30T18:48:30.363Z,3.50
2019-01-30T18:50:57.120Z,3.20
2019-01-30T18:53:24.760Z,3.30
2019-01-30T18:55:54.558Z,3.60
2019-01-30T18:58:22.219Z,3.70
2019-01-30T19:00:50.436Z,4.10
2019-01-30T19:03:17.110Z,4.40
2019-01-30T19:05:44.108Z,4.70
2019-01-30T19:08:11.403Z,4.90
2019-01-30T19:10:38.509Z,4.60
2019-01-30T19:13:05.520Z,4.70
2019-01-30T19:15:32.432Z,4.80
2019-01-30T19:17:59.697Z,4.60
2019-01-30T19:20:26.401Z,4.60
2019-01-30T19:22:53.265Z,4.60
2019-01-30T19:25:19.881Z,4.50
2019-01-30T19:27:46.948Z,4.40
2019-01-30T19:30:13.588Z,4.40
2019-01-30T19:32:47.114Z,4.70
2019-01-30T19:35:14.504Z,4.80
2019-01-30T19:37:41.703Z,4.60
2019-01-30T19:40:08.383Z,4.60
2019-01-30T19:42:35.313Z,4.40
2019-01-30T19:45:01.919Z,4.50
2019-01-30T19:47:31.266Z,4.30
2019-01-30T19:49:57.855Z,4.20
2019-01-30T19:52:24.515Z,3.90
2019-01-30T19:54:51.139Z,4.00
2019-01-30T19:57:18.077Z,4.10
2019-01-30T19:59:44.837Z,4.20
2019-01-30T20:02:11.573Z,3.90
2019-01-30T20:04:38.302Z,3.80
2019-01-30T20:07:14.558Z,3.90
2019-01-30T20:09:33.544Z,3.70
2019-01-30T20:12:00.655Z,4.00
2019-01-30T20:14:27.227Z,4.00
2019-01-30T20:16:53.854Z,4.00
2019-01-30T20:19:20.442Z,3.90
2019-01-30T20:21:47.336Z,4.00
2019-01-30T20:24:13.994Z,4.10
2019-01-30T20:26:40.576Z,4.00
2019-01-30T20:29:09.448Z,4.00
2019-01-30T20:31:36.467Z,4.30
2019-01-30T20:34:09.942Z,4.40
2019-01-30T20:36:31.766Z,4.30
2019-01-30T20:38:58.390Z,4.00
2019-01-30T20:41:25.063Z,3.60
2019-01-30T20:43:55.977Z,3.80
2019-01-30T20:46:23.555Z,4.00
2019-01-30T20:51:40.937Z,4.10
2019-01-30T20:54:09.024Z,4.30
2019-01-30T20:56:39.328Z,4.10
2019-01-30T20:59:20.261Z,3.60
2019-01-30T21:01:47.518Z,3.70
2019-01-30T21:04:14.156Z,3.80
2019-01-30T21:06:41.161Z,3.70
2019-01-30T21:09:08.050Z,3.90
2019-01-30T21:11:35.015Z,3.90
2019-01-30T21:14:01.614Z,3.80
2019-01-30T21:16:29.109Z,4.00
2019-01-30T21:18:55.753Z,3.90
2019-01-30T21:21:22.376Z,3.70
2019-01-30T21:23:49.315Z,3.80
2019-01-30T21:26:16.181Z,3.50
2019-01-30T21:28:42.994Z,3.70
2019-01-30T21:31:09.730Z,3.80
2019-01-30T21:33:36.375Z,4.00
2019-01-30T21:36:03.181Z,4.30
2019-01-30T21:38:31.190Z,4.20
2019-01-30T21:40:57.898Z,4.10
2019-01-30T21:43:24.725Z,4.00
2019-01-30T21:45:51.552Z,4.00
2019-01-30T21:48:18.505Z,3.90
2019-01-30T21:50:45.164Z,3.90
2019-01-30T21:53:11.771Z,3.90
2019-01-30T21:55:38.656Z,4.10
2019-01-30T21:58:05.821Z,4.20
2019-01-30T22:00:32.893Z,4.30
2019-01-30T22:02:59.737Z,4.20
2019-01-30T22:05:26.737Z,4.30
2019-01-30T22:08:00.723Z,4.40
2019-01-30T22:10:22.052Z,3.80
2019-01-30T22:12:48.874Z,3.90
2019-01-30T22:15:16.091Z,4.10
2019-01-30T22:17:43.005Z,4.30
2019-01-30T22:20:09.955Z,3.60
2019-01-30T22:22:36.804Z,4.00
2019-01-30T22:25:03.444Z,3.80
2019-01-30T22:27:30.211Z,3.90
2019-01-30T22:29:57.102Z,4.20
2019-01-30T22:32:23.736Z,4.40
2019-01-30T22:34:50.489Z,4.50
2019-01-30T22:37:17.277Z,4.40
2019-01-30T22:39:44.243Z,4.40
2019-01-30T22:42:11.228Z,4.20
2019-01-30T22:44:37.860Z,4.00
2019-01-30T22:47:04.522Z,3.70
2019-01-30T22:49:32.820Z,3.50
2019-01-30T22:51:59.606Z,3.20
2019-01-30T22:54:26.450Z,3.30
2019-01-30T22:56:53.169Z,2.90
2019-01-30T22:59:19.906Z,2.90
2019-01-30T23:01:46.612Z,3.10
2019-01-30T23:04:13.731Z,3.40
2019-01-30T23:06:40.636Z,3.50
2019-01-30T23:09:07.550Z,3.50
2019-01-30T23:11:34.567Z,3.70
2019-01-30T23:14:02.418Z,3.70
2019-01-30T23:16:29.154Z,3.50
2019-01-30T23:18:55.835Z,3.50
2019-01-30T23:21:22.825Z,3.60
2019-01-30T23:23:49.437Z,3.70
2019-01-30T23:26:16.082Z,3.70
2019-01-30T23:28:43.300Z,3.10
2019-01-30T23:31:10.208Z,2.90
2019-01-30T23:33:37.098Z,2.70
2019-01-30T23:36:04.328Z,2.10
2019-01-30T23:38:34.299Z,2.50
2019-01-30T23:40:59.478Z,2.90
2019-01-30T23:43:26.341Z,3.10
2019-01-30T23:45:53.040Z,3.20
2019-01-30T23:48:19.661Z,3.30
2019-01-30T23:50:46.750Z,3.40
2019-01-30T23:53:13.675Z,3.30
2019-01-30T23:55:40.756Z,3.30
2019-01-30T23:58:07.821Z,3.40
